sensor_id;sensor_type;location;lat;lon;timestamp;P1;durP1;ratioP1;P2;durP2;ratioP2
54875;SDS011;40764;48.472;8.166;2023-07-29T00:00:08;2.30;;;1.92;;
54875;SDS011;40764;48.472;8.166;2023-07-29T00:06:09;10.07;;;1.57;;
54875;SDS011;40764;48.472;8.166;2023-07-29T00:12:13;3.75;;;1.83;;
54875;SDS011;40764;48.472;8.166;2023-07-29T00:18:13;4.72;;;1.75;;
54875;SDS011;40764;48.472;8.166;2023-07-29T00:24:14;9.27;;;1.20;;
54875;SDS011;40764;48.472;8.166;2023-07-29T00:30:14;4.93;;;1.50;;
54875;SDS011;40764;48.472;8.166;2023-07-29T00:36:17;3.70;;;1.90;;
54875;SDS011;40764;48.472;8.166;2023-07-29T00:42:18;11.90;;;2.03;;
54875;SDS011;40764;48.472;8.166;2023-07-29T00:48:18;7.13;;;1.90;;
54875;SDS011;40764;48.472;8.166;2023-07-29T00:54:19;3.77;;;1.90;;
54875;SDS011;40764;48.472;8.166;2023-07-29T01:00:21;5.07;;;2.10;;
54875;SDS011;40764;48.472;8.166;2023-07-29T01:06:40;2.97;;;1.75;;
54875;SDS011;40764;48.472;8.166;2023-07-29T01:19:13;6.50;;;2.15;;
54875;SDS011;40764;48.472;8.166;2023-07-29T01:25:32;11.68;;;2.25;;
54875;SDS011;40764;48.472;8.166;2023-07-29T01:31:38;2.92;;;2.08;;
54875;SDS011;40764;48.472;8.166;2023-07-29T01:37:46;6.93;;;2.33;;
54875;SDS011;40764;48.472;8.166;2023-07-29T01:43:49;6.57;;;2.30;;
54875;SDS011;40764;48.472;8.166;2023-07-29T01:49:50;4.97;;;2.30;;
54875;SDS011;40764;48.472;8.166;2023-07-29T01:55:50;5.55;;;1.90;;
54875;SDS011;40764;48.472;8.166;2023-07-29T02:01:53;4.10;;;2.15;;
54875;SDS011;40764;48.472;8.166;2023-07-29T02:07:53;3.85;;;2.40;;
54875;SDS011;40764;48.472;8.166;2023-07-29T02:13:54;2.33;;;2.00;;
54875;SDS011;40764;48.472;8.166;2023-07-29T02:19:55;9.90;;;3.22;;
54875;SDS011;40764;48.472;8.166;2023-07-29T02:25:55;5.85;;;2.33;;
54875;SDS011;40764;48.472;8.166;2023-07-29T02:31:56;4.68;;;2.38;;
54875;SDS011;40764;48.472;8.166;2023-07-29T02:37:56;5.00;;;2.47;;
54875;SDS011;40764;48.472;8.166;2023-07-29T02:43:56;5.80;;;2.10;;
54875;SDS011;40764;48.472;8.166;2023-07-29T02:49:57;9.82;;;2.10;;
54875;SDS011;40764;48.472;8.166;2023-07-29T02:55:57;6.60;;;2.22;;
54875;SDS011;40764;48.472;8.166;2023-07-29T03:01:57;7.05;;;2.40;;
54875;SDS011;40764;48.472;8.166;2023-07-29T03:07:58;4.72;;;2.33;;
54875;SDS011;40764;48.472;8.166;2023-07-29T03:13:58;5.90;;;2.28;;
54875;SDS011;40764;48.472;8.166;2023-07-29T03:19:58;6.45;;;2.10;;
54875;SDS011;40764;48.472;8.166;2023-07-29T03:25:59;6.80;;;3.13;;
54875;SDS011;40764;48.472;8.166;2023-07-29T03:32:01;15.07;;;2.78;;
54875;SDS011;40764;48.472;8.166;2023-07-29T03:38:01;31.57;;;4.20;;
54875;SDS011;40764;48.472;8.166;2023-07-29T03:44:01;4.97;;;2.88;;
54875;SDS011;40764;48.472;8.166;2023-07-29T03:50:02;22.83;;;3.23;;
54875;SDS011;40764;48.472;8.166;2023-07-29T03:56:02;3.80;;;2.07;;
54875;SDS011;40764;48.472;8.166;2023-07-29T04:02:03;6.43;;;2.70;;
54875;SDS011;40764;48.472;8.166;2023-07-29T04:08:03;4.73;;;2.13;;
54875;SDS011;40764;48.472;8.166;2023-07-29T04:14:04;6.40;;;3.00;;
54875;SDS011;40764;48.472;8.166;2023-07-29T04:20:04;6.88;;;2.80;;
54875;SDS011;40764;48.472;8.166;2023-07-29T04:26:05;7.63;;;2.80;;
54875;SDS011;40764;48.472;8.166;2023-07-29T04:32:05;4.57;;;2.83;;
54875;SDS011;40764;48.472;8.166;2023-07-29T04:38:06;7.27;;;3.37;;
54875;SDS011;40764;48.472;8.166;2023-07-29T04:44:06;10.48;;;3.47;;
54875;SDS011;40764;48.472;8.166;2023-07-29T04:50:07;5.37;;;2.97;;
54875;SDS011;40764;48.472;8.166;2023-07-29T04:56:07;6.87;;;3.20;;
54875;SDS011;40764;48.472;8.166;2023-07-29T05:02:08;4.93;;;2.53;;
54875;SDS011;40764;48.472;8.166;2023-07-29T05:08:08;3.08;;;2.20;;
54875;SDS011;40764;48.472;8.166;2023-07-29T05:14:08;7.72;;;2.50;;
54875;SDS011;40764;48.472;8.166;2023-07-29T05:20:09;5.10;;;2.47;;
54875;SDS011;40764;48.472;8.166;2023-07-29T05:26:10;6.60;;;2.13;;
54875;SDS011;40764;48.472;8.166;2023-07-29T05:32:10;7.53;;;2.80;;
54875;SDS011;40764;48.472;8.166;2023-07-29T05:38:10;5.57;;;2.75;;
54875;SDS011;40764;48.472;8.166;2023-07-29T05:44:11;6.32;;;2.35;;
54875;SDS011;40764;48.472;8.166;2023-07-29T05:50:11;8.52;;;3.85;;
54875;SDS011;40764;48.472;8.166;2023-07-29T05:56:11;7.05;;;2.92;;
54875;SDS011;40764;48.472;8.166;2023-07-29T06:02:12;7.32;;;2.90;;
54875;SDS011;40764;48.472;8.166;2023-07-29T06:08:12;16.42;;;6.28;;
54875;SDS011;40764;48.472;8.166;2023-07-29T06:14:12;16.05;;;7.43;;
54875;SDS011;40764;48.472;8.166;2023-07-29T06:20:13;12.40;;;5.40;;
54875;SDS011;40764;48.472;8.166;2023-07-29T06:26:13;3.70;;;2.40;;
54875;SDS011;40764;48.472;8.166;2023-07-29T06:32:14;5.90;;;2.47;;
54875;SDS011;40764;48.472;8.166;2023-07-29T06:38:14;4.13;;;2.60;;
54875;SDS011;40764;48.472;8.166;2023-07-29T06:44:14;7.47;;;3.50;;
54875;SDS011;40764;48.472;8.166;2023-07-29T06:50:15;9.07;;;2.70;;
54875;SDS011;40764;48.472;8.166;2023-07-29T06:56:15;3.97;;;2.72;;
54875;SDS011;40764;48.472;8.166;2023-07-29T07:02:15;8.57;;;3.00;;
54875;SDS011;40764;48.472;8.166;2023-07-29T07:08:16;8.77;;;3.40;;
54875;SDS011;40764;48.472;8.166;2023-07-29T07:14:16;3.97;;;2.55;;
54875;SDS011;40764;48.472;8.166;2023-07-29T07:20:16;7.20;;;3.20;;
54875;SDS011;40764;48.472;8.166;2023-07-29T07:26:33;8.07;;;2.73;;
54875;SDS011;40764;48.472;8.166;2023-07-29T07:32:34;5.70;;;2.58;;
54875;SDS011;40764;48.472;8.166;2023-07-29T07:38:34;4.85;;;2.20;;
54875;SDS011;40764;48.472;8.166;2023-07-29T07:44:35;5.70;;;1.80;;
54875;SDS011;40764;48.472;8.166;2023-07-29T07:50:35;4.85;;;2.10;;
54875;SDS011;40764;48.472;8.166;2023-07-29T07:56:35;3.88;;;1.70;;
54875;SDS011;40764;48.472;8.166;2023-07-29T08:02:36;3.53;;;1.35;;
54875;SDS011;40764;48.472;8.166;2023-07-29T08:08:36;4.45;;;1.80;;
54875;SDS011;40764;48.472;8.166;2023-07-29T08:14:36;4.18;;;2.05;;
54875;SDS011;40764;48.472;8.166;2023-07-29T08:20:37;4.63;;;1.47;;
54875;SDS011;40764;48.472;8.166;2023-07-29T08:26:37;1.67;;;1.58;;
54875;SDS011;40764;48.472;8.166;2023-07-29T08:32:37;3.20;;;1.80;;
54875;SDS011;40764;48.472;8.166;2023-07-29T08:38:38;3.85;;;1.27;;
54875;SDS011;40764;48.472;8.166;2023-07-29T08:44:42;2.63;;;1.23;;
54875;SDS011;40764;48.472;8.166;2023-07-29T08:50:47;1.83;;;1.05;;
54875;SDS011;40764;48.472;8.166;2023-07-29T08:56:49;1.90;;;1.40;;
54875;SDS011;40764;48.472;8.166;2023-07-29T09:02:52;4.05;;;1.50;;
54875;SDS011;40764;48.472;8.166;2023-07-29T09:08:54;2.88;;;1.27;;
54875;SDS011;40764;48.472;8.166;2023-07-29T09:14:57;1.85;;;1.15;;
54875;SDS011;40764;48.472;8.166;2023-07-29T09:20:59;4.13;;;2.10;;
54875;SDS011;40764;48.472;8.166;2023-07-29T09:27:02;3.50;;;2.22;;
54875;SDS011;40764;48.472;8.166;2023-07-29T09:39:02;2.42;;;1.77;;
54875;SDS011;40764;48.472;8.166;2023-07-29T09:45:05;2.60;;;2.10;;
54875;SDS011;40764;48.472;8.166;2023-07-29T09:51:13;3.00;;;2.10;;
54875;SDS011;40764;48.472;8.166;2023-07-29T09:57:16;3.03;;;2.17;;
54875;SDS011;40764;48.472;8.166;2023-07-29T10:03:22;7.05;;;1.83;;
54875;SDS011;40764;48.472;8.166;2023-07-29T10:09:25;4.82;;;2.40;;
54875;SDS011;40764;48.472;8.166;2023-07-29T10:15:26;5.55;;;2.58;;
54875;SDS011;40764;48.472;8.166;2023-07-29T10:21:29;3.38;;;2.00;;
54875;SDS011;40764;48.472;8.166;2023-07-29T10:27:33;4.45;;;1.77;;
54875;SDS011;40764;48.472;8.166;2023-07-29T10:33:41;2.97;;;2.30;;
54875;SDS011;40764;48.472;8.166;2023-07-29T10:39:54;2.85;;;2.10;;
54875;SDS011;40764;48.472;8.166;2023-07-29T10:45:56;3.50;;;2.35;;
54875;SDS011;40764;48.472;8.166;2023-07-29T10:51:58;3.50;;;2.05;;
54875;SDS011;40764;48.472;8.166;2023-07-29T10:58:05;2.92;;;1.40;;
54875;SDS011;40764;48.472;8.166;2023-07-29T11:10:20;3.67;;;2.17;;
54875;SDS011;40764;48.472;8.166;2023-07-29T11:16:24;4.60;;;2.22;;
54875;SDS011;40764;48.472;8.166;2023-07-29T11:22:25;4.15;;;2.17;;
54875;SDS011;40764;48.472;8.166;2023-07-29T11:28:27;3.87;;;2.10;;
54875;SDS011;40764;48.472;8.166;2023-07-29T11:34:34;4.68;;;2.00;;
54875;SDS011;40764;48.472;8.166;2023-07-29T11:40:34;3.90;;;1.92;;
54875;SDS011;40764;48.472;8.166;2023-07-29T11:46:35;7.23;;;2.17;;
54875;SDS011;40764;48.472;8.166;2023-07-29T11:52:37;4.10;;;2.17;;
54875;SDS011;40764;48.472;8.166;2023-07-29T11:58:39;3.78;;;1.67;;
54875;SDS011;40764;48.472;8.166;2023-07-29T12:04:39;5.70;;;2.07;;
54875;SDS011;40764;48.472;8.166;2023-07-29T12:10:41;2.88;;;1.92;;
54875;SDS011;40764;48.472;8.166;2023-07-29T12:16:42;3.45;;;2.08;;
54875;SDS011;40764;48.472;8.166;2023-07-29T12:22:44;5.10;;;1.90;;
54875;SDS011;40764;48.472;8.166;2023-07-29T12:28:45;3.17;;;1.90;;
54875;SDS011;40764;48.472;8.166;2023-07-29T12:34:46;4.90;;;1.85;;
54875;SDS011;40764;48.472;8.166;2023-07-29T12:40:47;3.73;;;2.00;;
54875;SDS011;40764;48.472;8.166;2023-07-29T12:46:48;5.77;;;1.93;;
54875;SDS011;40764;48.472;8.166;2023-07-29T12:52:49;2.88;;;2.08;;
54875;SDS011;40764;48.472;8.166;2023-07-29T12:58:50;3.73;;;1.73;;
54875;SDS011;40764;48.472;8.166;2023-07-29T13:04:51;3.17;;;1.80;;
54875;SDS011;40764;48.472;8.166;2023-07-29T13:10:51;4.38;;;1.98;;
54875;SDS011;40764;48.472;8.166;2023-07-29T13:16:53;3.03;;;1.88;;
54875;SDS011;40764;48.472;8.166;2023-07-29T13:22:54;2.72;;;1.70;;
54875;SDS011;40764;48.472;8.166;2023-07-29T13:28:54;2.53;;;2.00;;
54875;SDS011;40764;48.472;8.166;2023-07-29T13:34:55;2.25;;;1.98;;
54875;SDS011;40764;48.472;8.166;2023-07-29T13:40:56;2.65;;;2.00;;
54875;SDS011;40764;48.472;8.166;2023-07-29T13:46:56;3.83;;;2.10;;
54875;SDS011;40764;48.472;8.166;2023-07-29T13:52:56;2.50;;;1.73;;
54875;SDS011;40764;48.472;8.166;2023-07-29T13:58:57;3.20;;;1.90;;
54875;SDS011;40764;48.472;8.166;2023-07-29T14:04:57;2.45;;;1.65;;
54875;SDS011;40764;48.472;8.166;2023-07-29T14:10:57;4.72;;;1.92;;
54875;SDS011;40764;48.472;8.166;2023-07-29T14:16:58;2.60;;;1.85;;
54875;SDS011;40764;48.472;8.166;2023-07-29T14:22:58;2.50;;;1.95;;
54875;SDS011;40764;48.472;8.166;2023-07-29T14:28:59;3.63;;;1.93;;
54875;SDS011;40764;48.472;8.166;2023-07-29T14:34:59;4.22;;;1.83;;
54875;SDS011;40764;48.472;8.166;2023-07-29T14:41:03;4.13;;;1.73;;
54875;SDS011;40764;48.472;8.166;2023-07-29T14:47:05;3.97;;;1.88;;
54875;SDS011;40764;48.472;8.166;2023-07-29T14:53:06;2.33;;;1.90;;
54875;SDS011;40764;48.472;8.166;2023-07-29T14:59:06;2.90;;;1.90;;
54875;SDS011;40764;48.472;8.166;2023-07-29T15:05:07;2.80;;;1.98;;
54875;SDS011;40764;48.472;8.166;2023-07-29T15:11:07;3.38;;;1.75;;
54875;SDS011;40764;48.472;8.166;2023-07-29T15:17:08;3.27;;;2.17;;
54875;SDS011;40764;48.472;8.166;2023-07-29T15:23:08;4.35;;;2.10;;
54875;SDS011;40764;48.472;8.166;2023-07-29T15:29:11;7.15;;;2.15;;
54875;SDS011;40764;48.472;8.166;2023-07-29T15:35:11;6.13;;;2.53;;
54875;SDS011;40764;48.472;8.166;2023-07-29T15:41:12;2.88;;;2.10;;
54875;SDS011;40764;48.472;8.166;2023-07-29T15:47:12;2.55;;;1.98;;
54875;SDS011;40764;48.472;8.166;2023-07-29T15:53:19;2.30;;;1.90;;
54875;SDS011;40764;48.472;8.166;2023-07-29T15:59:19;4.43;;;1.90;;
54875;SDS011;40764;48.472;8.166;2023-07-29T16:05:19;5.20;;;2.78;;
54875;SDS011;40764;48.472;8.166;2023-07-29T16:11:20;6.10;;;3.22;;
54875;SDS011;40764;48.472;8.166;2023-07-29T16:17:24;6.32;;;3.08;;
54875;SDS011;40764;48.472;8.166;2023-07-29T16:29:24;7.55;;;3.42;;
54875;SDS011;40764;48.472;8.166;2023-07-29T16:35:25;6.97;;;3.92;;
54875;SDS011;40764;48.472;8.166;2023-07-29T16:41:25;13.25;;;4.03;;
54875;SDS011;40764;48.472;8.166;2023-07-29T16:47:25;10.63;;;5.80;;
54875;SDS011;40764;48.472;8.166;2023-07-29T16:53:26;25.27;;;14.90;;
54875;SDS011;40764;48.472;8.166;2023-07-29T16:59:26;6.28;;;3.38;;
54875;SDS011;40764;48.472;8.166;2023-07-29T17:05:27;5.95;;;3.88;;
54875;SDS011;40764;48.472;8.166;2023-07-29T17:11:27;4.90;;;3.20;;
54875;SDS011;40764;48.472;8.166;2023-07-29T17:17:27;6.63;;;3.63;;
54875;SDS011;40764;48.472;8.166;2023-07-29T17:23:28;6.90;;;3.90;;
54875;SDS011;40764;48.472;8.166;2023-07-29T17:29:28;5.07;;;3.80;;
54875;SDS011;40764;48.472;8.166;2023-07-29T17:35:29;7.45;;;4.30;;
54875;SDS011;40764;48.472;8.166;2023-07-29T17:41:29;8.00;;;3.78;;
54875;SDS011;40764;48.472;8.166;2023-07-29T17:47:30;8.73;;;4.60;;
54875;SDS011;40764;48.472;8.166;2023-07-29T17:53:30;8.57;;;3.77;;
54875;SDS011;40764;48.472;8.166;2023-07-29T17:59:33;6.40;;;3.70;;
54875;SDS011;40764;48.472;8.166;2023-07-29T18:05:34;9.55;;;4.43;;
54875;SDS011;40764;48.472;8.166;2023-07-29T18:11:35;6.78;;;4.22;;
54875;SDS011;40764;48.472;8.166;2023-07-29T18:17:43;8.73;;;4.28;;
54875;SDS011;40764;48.472;8.166;2023-07-29T18:23:44;7.30;;;3.90;;
54875;SDS011;40764;48.472;8.166;2023-07-29T18:29:44;5.93;;;4.40;;
54875;SDS011;40764;48.472;8.166;2023-07-29T18:35:44;9.43;;;4.93;;
54875;SDS011;40764;48.472;8.166;2023-07-29T18:41:46;8.63;;;4.40;;
54875;SDS011;40764;48.472;8.166;2023-07-29T18:47:46;6.68;;;4.78;;
54875;SDS011;40764;48.472;8.166;2023-07-29T18:53:49;7.70;;;5.32;;
54875;SDS011;40764;48.472;8.166;2023-07-29T18:59:50;8.30;;;5.77;;
54875;SDS011;40764;48.472;8.166;2023-07-29T19:05:54;9.57;;;5.70;;
54875;SDS011;40764;48.472;8.166;2023-07-29T19:11:56;20.00;;;5.15;;
54875;SDS011;40764;48.472;8.166;2023-07-29T19:17:56;7.97;;;4.85;;
54875;SDS011;40764;48.472;8.166;2023-07-29T19:23:57;11.27;;;5.13;;
54875;SDS011;40764;48.472;8.166;2023-07-29T19:29:58;9.00;;;5.40;;
54875;SDS011;40764;48.472;8.166;2023-07-29T19:35:59;10.77;;;6.30;;
54875;SDS011;40764;48.472;8.166;2023-07-29T19:41:59;11.63;;;5.30;;
54875;SDS011;40764;48.472;8.166;2023-07-29T19:48:00;9.17;;;6.00;;
54875;SDS011;40764;48.472;8.166;2023-07-29T19:54:04;14.18;;;5.72;;
54875;SDS011;40764;48.472;8.166;2023-07-29T20:00:07;7.05;;;4.80;;
54875;SDS011;40764;48.472;8.166;2023-07-29T20:06:07;10.23;;;5.30;;
54875;SDS011;40764;48.472;8.166;2023-07-29T20:12:08;9.40;;;5.17;;
54875;SDS011;40764;48.472;8.166;2023-07-29T20:18:08;11.77;;;5.50;;
54875;SDS011;40764;48.472;8.166;2023-07-29T20:24:09;7.27;;;5.20;;
54875;SDS011;40764;48.472;8.166;2023-07-29T20:30:10;14.00;;;5.97;;
54875;SDS011;40764;48.472;8.166;2023-07-29T20:42:11;11.23;;;6.28;;
54875;SDS011;40764;48.472;8.166;2023-07-29T20:48:11;18.55;;;6.18;;
54875;SDS011;40764;48.472;8.166;2023-07-29T20:54:12;19.00;;;6.27;;
54875;SDS011;40764;48.472;8.166;2023-07-29T21:00:13;9.37;;;5.53;;
54875;SDS011;40764;48.472;8.166;2023-07-29T21:06:13;10.53;;;5.30;;
54875;SDS011;40764;48.472;8.166;2023-07-29T21:12:15;11.05;;;5.40;;
54875;SDS011;40764;48.472;8.166;2023-07-29T21:18:15;11.18;;;5.85;;
54875;SDS011;40764;48.472;8.166;2023-07-29T21:24:19;9.93;;;5.70;;
54875;SDS011;40764;48.472;8.166;2023-07-29T21:30:20;10.07;;;5.38;;
54875;SDS011;40764;48.472;8.166;2023-07-29T21:36:20;7.22;;;4.47;;
54875;SDS011;40764;48.472;8.166;2023-07-29T21:42:22;10.00;;;4.22;;
54875;SDS011;40764;48.472;8.166;2023-07-29T21:48:23;6.13;;;3.80;;
54875;SDS011;40764;48.472;8.166;2023-07-29T21:54:23;9.53;;;4.20;;
54875;SDS011;40764;48.472;8.166;2023-07-29T22:00:24;4.60;;;3.20;;
54875;SDS011;40764;48.472;8.166;2023-07-29T22:06:25;5.07;;;3.10;;
54875;SDS011;40764;48.472;8.166;2023-07-29T22:12:25;5.07;;;3.30;;
54875;SDS011;40764;48.472;8.166;2023-07-29T22:18:31;4.82;;;3.47;;
54875;SDS011;40764;48.472;8.166;2023-07-29T22:24:32;6.63;;;3.63;;
54875;SDS011;40764;48.472;8.166;2023-07-29T22:30:34;6.03;;;3.95;;
54875;SDS011;40764;48.472;8.166;2023-07-29T22:36:36;6.35;;;3.15;;
54875;SDS011;40764;48.472;8.166;2023-07-29T22:42:36;6.93;;;3.85;;
54875;SDS011;40764;48.472;8.166;2023-07-29T22:48:37;4.53;;;3.33;;
54875;SDS011;40764;48.472;8.166;2023-07-29T22:54:37;6.55;;;3.00;;
54875;SDS011;40764;48.472;8.166;2023-07-29T23:00:37;7.20;;;3.55;;
54875;SDS011;40764;48.472;8.166;2023-07-29T23:06:38;4.43;;;3.30;;
54875;SDS011;40764;48.472;8.166;2023-07-29T23:12:38;5.90;;;3.17;;
54875;SDS011;40764;48.472;8.166;2023-07-29T23:18:39;4.33;;;3.23;;
54875;SDS011;40764;48.472;8.166;2023-07-29T23:24:39;3.72;;;3.10;;
54875;SDS011;40764;48.472;8.166;2023-07-29T23:30:39;4.20;;;2.78;;
54875;SDS011;40764;48.472;8.166;2023-07-29T23:36:40;6.00;;;3.80;;
54875;SDS011;40764;48.472;8.166;2023-07-29T23:42:40;8.03;;;3.63;;
54875;SDS011;40764;48.472;8.166;2023-07-29T23:48:41;5.75;;;4.07;;
54875;SDS011;40764;48.472;8.166;2023-07-29T23:54:41;10.27;;;4.60;;
